sensor_id;sensor_type;location;lat;lon;timestamp;pressure;altitude;pressure_sealevel;temperature;humidity
72548;BME280;60570;50.848;6.776;2023-07-13T00:00:10;100443.28;;;24.18;41.89
72548;BME280;60570;50.848;6.776;2023-07-13T00:01:12;100436.78;;;24.18;41.62
72548;BME280;60570;50.848;6.776;2023-07-13T00:02:13;100436.78;;;24.18;42.01
72548;BME280;60570;50.848;6.776;2023-07-13T00:03:14;100439.63;;;24.18;41.92
72548;BME280;60570;50.848;6.776;2023-07-13T00:04:15;100447.34;;;24.17;41.95
72548;BME280;60570;50.848;6.776;2023-07-13T00:05:16;100453.44;;;24.16;41.97
72548;BME280;60570;50.848;6.776;2023-07-13T00:06:17;100452.66;;;24.15;41.81
72548;BME280;60570;50.848;6.776;2023-07-13T00:07:19;100442.53;;;24.14;41.75
72548;BME280;60570;50.848;6.776;2023-07-13T00:08:21;100445.34;;;24.14;41.90
72548;BME280;60570;50.848;6.776;2023-07-13T00:09:22;100443.78;;;24.13;42.14
72548;BME280;60570;50.848;6.776;2023-07-13T00:10:23;100445.81;;;24.13;41.89
72548;BME280;60570;50.848;6.776;2023-07-13T00:11:24;100446.22;;;24.11;42.00
72548;BME280;60570;50.848;6.776;2023-07-13T00:12:26;100451.09;;;24.11;41.96
72548;BME280;60570;50.848;6.776;2023-07-13T00:13:27;100456.78;;;24.11;41.68
72548;BME280;60570;50.848;6.776;2023-07-13T00:14:30;100453.94;;;24.11;42.07
72548;BME280;60570;50.848;6.776;2023-07-13T00:15:31;100453.13;;;24.10;42.02
72548;BME280;60570;50.848;6.776;2023-07-13T00:16:33;100449.91;;;24.08;42.00
72548;BME280;60570;50.848;6.776;2023-07-13T00:17:33;100443.44;;;24.08;42.21
72548;BME280;60570;50.848;6.776;2023-07-13T00:18:35;100445.47;;;24.07;42.09
72548;BME280;60570;50.848;6.776;2023-07-13T00:19:35;100443.84;;;24.06;41.94
72548;BME280;60570;50.848;6.776;2023-07-13T00:20:37;100452.38;;;24.06;41.88
72548;BME280;60570;50.848;6.776;2023-07-13T00:21:37;100449.53;;;24.06;41.96
72548;BME280;60570;50.848;6.776;2023-07-13T00:22:39;100449.16;;;24.04;42.05
72548;BME280;60570;50.848;6.776;2023-07-13T00:23:40;100452.00;;;24.04;41.88
72548;BME280;60570;50.848;6.776;2023-07-13T00:24:42;100454.84;;;24.04;42.02
72548;BME280;60570;50.848;6.776;2023-07-13T00:25:43;100451.63;;;24.02;41.90
72548;BME280;60570;50.848;6.776;2023-07-13T00:26:44;100456.09;;;24.03;42.07
72548;BME280;60570;50.848;6.776;2023-07-13T00:27:46;100454.88;;;24.00;41.86
72548;BME280;60570;50.848;6.776;2023-07-13T00:28:48;100457.69;;;24.00;41.94
72548;BME280;60570;50.848;6.776;2023-07-13T00:29:50;100447.59;;;23.99;42.07
72548;BME280;60570;50.848;6.776;2023-07-13T00:30:52;100452.47;;;23.99;42.07
72548;BME280;60570;50.848;6.776;2023-07-13T00:31:54;100452.09;;;23.97;42.01
72548;BME280;60570;50.848;6.776;2023-07-13T00:32:55;100456.50;;;23.98;41.95
72548;BME280;60570;50.848;6.776;2023-07-13T00:33:56;100454.13;;;23.96;42.10
72548;BME280;60570;50.848;6.776;2023-07-13T00:34:57;100447.63;;;23.96;42.03
72548;BME280;60570;50.848;6.776;2023-07-13T00:36:00;100442.38;;;23.94;42.21
72548;BME280;60570;50.848;6.776;2023-07-13T00:37:01;100450.09;;;23.94;42.02
72548;BME280;60570;50.848;6.776;2023-07-13T00:38:02;100447.69;;;23.92;42.07
72548;BME280;60570;50.848;6.776;2023-07-13T00:39:03;100448.50;;;23.93;42.34
72548;BME280;60570;50.848;6.776;2023-07-13T00:40:05;100446.09;;;23.91;42.17
72548;BME280;60570;50.848;6.776;2023-07-13T00:41:06;100447.31;;;23.90;42.16
72548;BME280;60570;50.848;6.776;2023-07-13T00:42:08;100450.13;;;23.90;42.07
72548;BME280;60570;50.848;6.776;2023-07-13T00:43:09;100452.97;;;23.90;42.04
72548;BME280;60570;50.848;6.776;2023-07-13T00:44:13;100443.31;;;23.88;41.98
72548;BME280;60570;50.848;6.776;2023-07-13T00:46:35;100451.81;;;23.88;42.10
72548;BME280;60570;50.848;6.776;2023-07-13T00:47:35;100443.31;;;23.88;42.07
72548;BME280;60570;50.848;6.776;2023-07-13T00:48:37;100444.53;;;23.87;42.04
72548;BME280;60570;50.848;6.776;2023-07-13T00:49:38;100442.13;;;23.85;42.03
72548;BME280;60570;50.848;6.776;2023-07-13T00:50:41;100444.16;;;23.85;42.08
72548;BME280;60570;50.848;6.776;2023-07-13T00:51:44;100438.91;;;23.83;42.23
72548;BME280;60570;50.848;6.776;2023-07-13T00:52:46;100437.28;;;23.82;42.20
72548;BME280;60570;50.848;6.776;2023-07-13T00:53:49;100437.28;;;23.82;42.35
72548;BME280;60570;50.848;6.776;2023-07-13T00:54:50;100438.97;;;23.80;42.27
72548;BME280;60570;50.848;6.776;2023-07-13T00:55:53;100440.97;;;23.79;42.27
72548;BME280;60570;50.848;6.776;2023-07-13T00:56:57;100432.47;;;23.79;42.39
72548;BME280;60570;50.848;6.776;2023-07-13T00:58:00;100432.91;;;23.78;42.47
72548;BME280;60570;50.848;6.776;2023-07-13T00:59:04;100434.94;;;23.77;41.98
72548;BME280;60570;50.848;6.776;2023-07-13T01:00:07;100426.84;;;23.76;42.24
72548;BME280;60570;50.848;6.776;2023-07-13T01:01:09;100433.31;;;23.76;42.26
72548;BME280;60570;50.848;6.776;2023-07-13T01:02:11;100432.94;;;23.74;42.25
72548;BME280;60570;50.848;6.776;2023-07-13T01:03:12;100432.94;;;23.74;42.14
72548;BME280;60570;50.848;6.776;2023-07-13T01:04:14;100434.19;;;23.73;42.19
72548;BME280;60570;50.848;6.776;2023-07-13T01:05:16;100439.84;;;23.73;42.17
72548;BME280;60570;50.848;6.776;2023-07-13T01:06:18;100437.44;;;23.72;42.37
72548;BME280;60570;50.848;6.776;2023-07-13T01:07:18;100432.22;;;23.70;42.37
72548;BME280;60570;50.848;6.776;2023-07-13T01:08:20;100433.00;;;23.71;42.32
72548;BME280;60570;50.848;6.776;2023-07-13T01:09:20;100434.22;;;23.70;42.29
72548;BME280;60570;50.848;6.776;2023-07-13T01:10:22;100437.50;;;23.68;42.07
72548;BME280;60570;50.848;6.776;2023-07-13T01:11:23;100435.06;;;23.67;42.10
72548;BME280;60570;50.848;6.776;2023-07-13T01:12:24;100434.28;;;23.66;42.47
72548;BME280;60570;50.848;6.776;2023-07-13T01:13:25;100437.13;;;23.66;42.17
72548;BME280;60570;50.848;6.776;2023-07-13T01:14:25;100435.50;;;23.65;42.38
72548;BME280;60570;50.848;6.776;2023-07-13T01:15:37;100440.38;;;23.65;42.33
72548;BME280;60570;50.848;6.776;2023-07-13T01:16:39;100431.91;;;23.61;42.32
72548;BME280;60570;50.848;6.776;2023-07-13T01:17:42;100434.75;;;23.61;42.27
72548;BME280;60570;50.848;6.776;2023-07-13T01:18:44;100429.50;;;23.60;42.42
72548;BME280;60570;50.848;6.776;2023-07-13T01:19:45;100425.84;;;23.59;42.38
72548;BME280;60570;50.848;6.776;2023-07-13T01:20:51;100431.97;;;23.58;42.18
72548;BME280;60570;50.848;6.776;2023-07-13T01:21:52;100439.66;;;23.57;42.23
72548;BME280;60570;50.848;6.776;2023-07-13T01:22:54;100436.03;;;23.57;42.38
72548;BME280;60570;50.848;6.776;2023-07-13T01:23:54;100430.78;;;23.55;42.38
72548;BME280;60570;50.848;6.776;2023-07-13T01:24:56;100429.56;;;23.56;42.39
72548;BME280;60570;50.848;6.776;2023-07-13T01:25:57;100429.19;;;23.54;42.56
72548;BME280;60570;50.848;6.776;2023-07-13T01:26:58;100419.84;;;23.54;42.44
72548;BME280;60570;50.848;6.776;2023-07-13T01:27:59;100434.47;;;23.52;42.62
72548;BME280;60570;50.848;6.776;2023-07-13T01:29:00;100430.00;;;23.51;42.54
72548;BME280;60570;50.848;6.776;2023-07-13T01:30:01;100437.75;;;23.51;42.34
72548;BME280;60570;50.848;6.776;2023-07-13T01:31:02;100442.59;;;23.50;42.58
72548;BME280;60570;50.848;6.776;2023-07-13T01:32:04;100441.78;;;23.50;42.35
72548;BME280;60570;50.848;6.776;2023-07-13T01:33:04;100436.13;;;23.50;42.52
72548;BME280;60570;50.848;6.776;2023-07-13T01:34:05;100437.34;;;23.49;42.67
72548;BME280;60570;50.848;6.776;2023-07-13T01:35:06;100445.88;;;23.49;42.34
72548;BME280;60570;50.848;6.776;2023-07-13T01:36:09;100442.22;;;23.48;42.36
72548;BME280;60570;50.848;6.776;2023-07-13T01:37:11;100434.53;;;23.49;42.69
72548;BME280;60570;50.848;6.776;2023-07-13T01:38:13;100438.13;;;23.49;42.40
72548;BME280;60570;50.848;6.776;2023-07-13T01:39:15;100436.97;;;23.47;42.67
72548;BME280;60570;50.848;6.776;2023-07-13T01:40:17;100427.66;;;23.46;42.52
72548;BME280;60570;50.848;6.776;2023-07-13T01:41:18;100427.66;;;23.46;42.69
72548;BME280;60570;50.848;6.776;2023-07-13T01:42:19;100434.56;;;23.45;42.55
72548;BME280;60570;50.848;6.776;2023-07-13T01:43:20;100433.75;;;23.45;42.28
72548;BME280;60570;50.848;6.776;2023-07-13T01:44:21;100437.03;;;23.43;42.62
72548;BME280;60570;50.848;6.776;2023-07-13T01:45:23;100439.88;;;23.43;42.53
72548;BME280;60570;50.848;6.776;2023-07-13T01:46:23;100440.25;;;23.42;42.46
72548;BME280;60570;50.848;6.776;2023-07-13T01:47:25;100434.59;;;23.42;42.46
72548;BME280;60570;50.848;6.776;2023-07-13T01:48:26;100437.88;;;23.40;42.55
72548;BME280;60570;50.848;6.776;2023-07-13T01:49:27;100437.88;;;23.40;42.49
72548;BME280;60570;50.848;6.776;2023-07-13T01:50:28;100437.03;;;23.40;42.82
72548;BME280;60570;50.848;6.776;2023-07-13T01:51:31;100429.78;;;23.39;42.49
72548;BME280;60570;50.848;6.776;2023-07-13T01:52:31;100424.53;;;23.37;42.49
72548;BME280;60570;50.848;6.776;2023-07-13T01:53:33;100421.31;;;23.35;42.52
72548;BME280;60570;50.848;6.776;2023-07-13T01:54:33;100427.00;;;23.35;42.58
72548;BME280;60570;50.848;6.776;2023-07-13T01:55:35;100427.78;;;23.36;42.58
72548;BME280;60570;50.848;6.776;2023-07-13T01:56:35;100424.56;;;23.34;42.75
72548;BME280;60570;50.848;6.776;2023-07-13T01:57:37;100424.56;;;23.34;42.91
72548;BME280;60570;50.848;6.776;2023-07-13T01:58:37;100436.34;;;23.32;42.66
72548;BME280;60570;50.848;6.776;2023-07-13T01:59:39;100429.84;;;23.32;42.70
72548;BME280;60570;50.848;6.776;2023-07-13T02:00:39;100429.84;;;23.32;42.88
72548;BME280;60570;50.848;6.776;2023-07-13T02:01:41;100434.75;;;23.31;42.80
72548;BME280;60570;50.848;6.776;2023-07-13T02:02:41;100430.25;;;23.30;42.69
72548;BME280;60570;50.848;6.776;2023-07-13T02:03:42;100435.16;;;23.30;42.73
72548;BME280;60570;50.848;6.776;2023-07-13T02:04:43;100435.53;;;23.28;42.49
72548;BME280;60570;50.848;6.776;2023-07-13T02:05:44;100432.31;;;23.26;42.57
72548;BME280;60570;50.848;6.776;2023-07-13T02:06:47;100440.81;;;23.26;42.95
72548;BME280;60570;50.848;6.776;2023-07-13T02:07:47;100440.06;;;23.26;42.88
72548;BME280;60570;50.848;6.776;2023-07-13T02:08:49;100436.41;;;23.25;42.67
72548;BME280;60570;50.848;6.776;2023-07-13T02:09:49;100439.25;;;23.25;42.77
72548;BME280;60570;50.848;6.776;2023-07-13T02:10:51;100441.69;;;23.23;42.46
72548;BME280;60570;50.848;6.776;2023-07-13T02:11:51;100441.69;;;23.23;42.93
72548;BME280;60570;50.848;6.776;2023-07-13T02:12:53;100442.13;;;23.22;42.75
72548;BME280;60570;50.848;6.776;2023-07-13T02:13:53;100442.91;;;23.22;42.85
72548;BME280;60570;50.848;6.776;2023-07-13T02:14:55;100440.88;;;23.23;42.68
72548;BME280;60570;50.848;6.776;2023-07-13T02:15:56;100441.31;;;23.21;42.67
72548;BME280;60570;50.848;6.776;2023-07-13T02:16:57;100441.75;;;23.20;42.88
72548;BME280;60570;50.848;6.776;2023-07-13T02:17:58;100444.56;;;23.20;42.66
72548;BME280;60570;50.848;6.776;2023-07-13T02:18:59;100440.94;;;23.19;42.68
72548;BME280;60570;50.848;6.776;2023-07-13T02:20:00;100442.94;;;23.18;42.95
72548;BME280;60570;50.848;6.776;2023-07-13T02:21:02;100445.41;;;23.16;42.91
72548;BME280;60570;50.848;6.776;2023-07-13T02:22:04;100447.44;;;23.16;42.80
72548;BME280;60570;50.848;6.776;2023-07-13T02:23:06;100443.81;;;23.15;42.67
72548;BME280;60570;50.848;6.776;2023-07-13T02:24:06;100444.22;;;23.14;42.91
72548;BME280;60570;50.848;6.776;2023-07-13T02:25:08;100441.41;;;23.14;42.92
72548;BME280;60570;50.848;6.776;2023-07-13T02:26:08;100444.63;;;23.12;42.73
72548;BME280;60570;50.848;6.776;2023-07-13T02:27:10;100443.03;;;23.11;42.80
72548;BME280;60570;50.848;6.776;2023-07-13T02:28:11;100443.03;;;23.11;42.76
72548;BME280;60570;50.848;6.776;2023-07-13T02:29:11;100437.81;;;23.10;43.11
72548;BME280;60570;50.848;6.776;2023-07-13T02:30:13;100441.41;;;23.10;42.98
72548;BME280;60570;50.848;6.776;2023-07-13T02:31:14;100444.69;;;23.09;42.87
72548;BME280;60570;50.848;6.776;2023-07-13T02:32:16;100443.09;;;23.08;43.01
72548;BME280;60570;50.848;6.776;2023-07-13T02:33:17;100444.28;;;23.07;43.11
72548;BME280;60570;50.848;6.776;2023-07-13T02:34:17;100444.28;;;23.07;42.84
72548;BME280;60570;50.848;6.776;2023-07-13T02:35:19;100440.66;;;23.06;43.05
72548;BME280;60570;50.848;6.776;2023-07-13T02:36:19;100437.03;;;23.06;42.96
72548;BME280;60570;50.848;6.776;2023-07-13T02:37:22;100441.06;;;23.05;42.82
72548;BME280;60570;50.848;6.776;2023-07-13T02:38:22;100446.75;;;23.05;42.89
72548;BME280;60570;50.848;6.776;2023-07-13T02:39:24;100446.38;;;23.03;42.86
72548;BME280;60570;50.848;6.776;2023-07-13T02:40:24;100451.25;;;23.02;42.99
72548;BME280;60570;50.848;6.776;2023-07-13T02:41:26;100448.81;;;23.01;43.12
72548;BME280;60570;50.848;6.776;2023-07-13T02:42:27;100448.44;;;22.99;43.06
72548;BME280;60570;50.848;6.776;2023-07-13T02:43:28;100443.56;;;22.99;42.90
72548;BME280;60570;50.848;6.776;2023-07-13T02:44:29;100441.97;;;22.98;43.12
72548;BME280;60570;50.848;6.776;2023-07-13T02:45:31;100451.25;;;22.99;43.19
72548;BME280;60570;50.848;6.776;2023-07-13T02:46:32;100448.03;;;22.97;42.95
72548;BME280;60570;50.848;6.776;2023-07-13T02:47:34;100446.44;;;22.96;43.20
72548;BME280;60570;50.848;6.776;2023-07-13T02:48:35;100444.81;;;22.95;42.94
72548;BME280;60570;50.848;6.776;2023-07-13T02:49:37;100443.22;;;22.94;43.23
72548;BME280;60570;50.848;6.776;2023-07-13T02:50:37;100440.41;;;22.94;43.30
72548;BME280;60570;50.848;6.776;2023-07-13T02:51:38;100444.81;;;22.95;43.02
72548;BME280;60570;50.848;6.776;2023-07-13T02:52:41;100442.41;;;22.93;43.10
72548;BME280;60570;50.848;6.776;2023-07-13T02:53:41;100445.25;;;22.93;43.06
72548;BME280;60570;50.848;6.776;2023-07-13T02:54:43;100442.84;;;22.92;43.13
72548;BME280;60570;50.848;6.776;2023-07-13T02:55:43;100439.19;;;22.91;42.84
72548;BME280;60570;50.848;6.776;2023-07-13T02:56:47;100442.47;;;22.90;42.91
72548;BME280;60570;50.848;6.776;2023-07-13T02:57:48;100440.06;;;22.88;43.27
72548;BME280;60570;50.848;6.776;2023-07-13T02:58:50;100433.59;;;22.88;43.13
72548;BME280;60570;50.848;6.776;2023-07-13T02:59:50;100440.47;;;22.87;42.98
72548;BME280;60570;50.848;6.776;2023-07-13T03:00:52;100453.84;;;22.86;43.11
72548;BME280;60570;50.848;6.776;2023-07-13T03:01:52;100440.09;;;22.85;43.25
72548;BME280;60570;50.848;6.776;2023-07-13T03:02:54;100449.00;;;22.83;43.32
72548;BME280;60570;50.848;6.776;2023-07-13T03:03:57;100453.88;;;22.83;42.95
72548;BME280;60570;50.848;6.776;2023-07-13T03:04:58;100455.91;;;22.82;43.25
72548;BME280;60570;50.848;6.776;2023-07-13T03:06:00;100458.75;;;22.82;43.14
72548;BME280;60570;50.848;6.776;2023-07-13T03:07:02;100463.59;;;22.82;43.31
72548;BME280;60570;50.848;6.776;2023-07-13T03:08:05;100461.19;;;22.80;43.21
72548;BME280;60570;50.848;6.776;2023-07-13T03:09:06;100460.38;;;22.80;43.12
72548;BME280;60570;50.848;6.776;2023-07-13T03:10:08;100455.50;;;22.80;43.30
72548;BME280;60570;50.848;6.776;2023-07-13T03:11:10;100461.59;;;22.79;43.06
72548;BME280;60570;50.848;6.776;2023-07-13T03:12:11;100462.38;;;22.79;42.90
72548;BME280;60570;50.848;6.776;2023-07-13T03:13:12;100460.78;;;22.78;43.29
72548;BME280;60570;50.848;6.776;2023-07-13T03:14:13;100462.00;;;22.77;43.13
72548;BME280;60570;50.848;6.776;2023-07-13T03:15:13;100458.38;;;22.77;43.37
72548;BME280;60570;50.848;6.776;2023-07-13T03:16:15;100461.22;;;22.77;43.30
72548;BME280;60570;50.848;6.776;2023-07-13T03:17:17;100460.84;;;22.75;43.09
72548;BME280;60570;50.848;6.776;2023-07-13T03:18:18;100458.00;;;22.75;43.39
72548;BME280;60570;50.848;6.776;2023-07-13T03:19:19;100459.22;;;22.74;43.29
72548;BME280;60570;50.848;6.776;2023-07-13T03:20:20;100466.94;;;22.73;43.38
72548;BME280;60570;50.848;6.776;2023-07-13T03:21:21;100461.66;;;22.72;43.27
72548;BME280;60570;50.848;6.776;2023-07-13T03:22:22;100457.63;;;22.73;43.41
72548;BME280;60570;50.848;6.776;2023-07-13T03:23:24;100459.63;;;22.72;43.38
72548;BME280;60570;50.848;6.776;2023-07-13T03:24:25;100462.09;;;22.70;43.23
72548;BME280;60570;50.848;6.776;2023-07-13T03:25:26;100459.69;;;22.69;43.39
72548;BME280;60570;50.848;6.776;2023-07-13T03:26:27;100467.34;;;22.68;43.45
72548;BME280;60570;50.848;6.776;2023-07-13T03:27:28;100470.19;;;22.68;43.28
72548;BME280;60570;50.848;6.776;2023-07-13T03:28:28;100469.81;;;22.66;43.25
72548;BME280;60570;50.848;6.776;2023-07-13T03:29:30;100460.50;;;22.66;43.45
72548;BME280;60570;50.848;6.776;2023-07-13T03:30:30;100470.22;;;22.65;43.20
72548;BME280;60570;50.848;6.776;2023-07-13T03:31:32;100474.66;;;22.66;43.25
72548;BME280;60570;50.848;6.776;2023-07-13T03:33:34;100472.28;;;22.61;43.28
72548;BME280;60570;50.848;6.776;2023-07-13T03:34:35;100465.81;;;22.60;43.32
72548;BME280;60570;50.848;6.776;2023-07-13T03:35:39;100472.72;;;22.59;43.33
72548;BME280;60570;50.848;6.776;2023-07-13T03:36:40;100457.34;;;22.57;43.37
72548;BME280;60570;50.848;6.776;2023-07-13T03:37:41;100465.41;;;22.58;43.45
72548;BME280;60570;50.848;6.776;2023-07-13T03:38:44;100463.00;;;22.57;43.35
72548;BME280;60570;50.848;6.776;2023-07-13T03:39:46;100463.00;;;22.57;43.41
72548;BME280;60570;50.848;6.776;2023-07-13T03:40:46;100472.72;;;22.56;43.39
72548;BME280;60570;50.848;6.776;2023-07-13T03:41:49;100462.59;;;22.55;43.55
72548;BME280;60570;50.848;6.776;2023-07-13T03:42:49;100461.38;;;22.56;43.55
72548;BME280;60570;50.848;6.776;2023-07-13T03:43:51;100461.78;;;22.54;43.34
72548;BME280;60570;50.848;6.776;2023-07-13T03:44:51;100466.66;;;22.54;43.55
72548;BME280;60570;50.848;6.776;2023-07-13T03:45:52;100465.03;;;22.53;43.18
72548;BME280;60570;50.848;6.776;2023-07-13T03:46:54;100467.06;;;22.52;43.47
72548;BME280;60570;50.848;6.776;2023-07-13T03:47:54;100475.56;;;22.52;43.46
72548;BME280;60570;50.848;6.776;2023-07-13T03:48:56;100472.72;;;22.52;43.51
72548;BME280;60570;50.848;6.776;2023-07-13T03:49:57;100471.94;;;22.52;43.24
72548;BME280;60570;50.848;6.776;2023-07-13T03:50:58;100474.78;;;22.52;43.65
72548;BME280;60570;50.848;6.776;2023-07-13T03:51:59;100480.03;;;22.50;43.50
72548;BME280;60570;50.848;6.776;2023-07-13T03:53:00;100479.22;;;22.49;43.45
72548;BME280;60570;50.848;6.776;2023-07-13T03:54:02;100483.28;;;22.48;43.43
72548;BME280;60570;50.848;6.776;2023-07-13T03:55:04;100486.91;;;22.49;43.46
72548;BME280;60570;50.848;6.776;2023-07-13T03:56:06;100483.28;;;22.48;43.51
72548;BME280;60570;50.848;6.776;2023-07-13T03:57:07;100482.50;;;22.48;43.44
72548;BME280;60570;50.848;6.776;2023-07-13T03:58:25;100487.75;;;22.46;43.62
72548;BME280;60570;50.848;6.776;2023-07-13T03:59:27;100487.75;;;22.46;43.53
72548;BME280;60570;50.848;6.776;2023-07-13T04:00:27;100483.31;;;22.45;43.53
72548;BME280;60570;50.848;6.776;2023-07-13T04:01:29;100491.00;;;22.44;43.44
72548;BME280;60570;50.848;6.776;2023-07-13T04:02:30;100488.19;;;22.44;43.48
72548;BME280;60570;50.848;6.776;2023-07-13T04:03:32;100488.56;;;22.43;43.59
72548;BME280;60570;50.848;6.776;2023-07-13T04:04:33;100487.38;;;22.44;43.47
72548;BME280;60570;50.848;6.776;2023-07-13T04:05:34;100479.69;;;22.41;43.69
72548;BME280;60570;50.848;6.776;2023-07-13T04:06:36;100486.16;;;22.41;43.52
72548;BME280;60570;50.848;6.776;2023-07-13T04:07:37;100484.16;;;22.42;43.67
72548;BME280;60570;50.848;6.776;2023-07-13T04:08:38;100490.25;;;22.40;43.65
72548;BME280;60570;50.848;6.776;2023-07-13T04:09:41;100488.19;;;22.41;43.59
72548;BME280;60570;50.848;6.776;2023-07-13T04:10:42;100493.47;;;22.39;43.85
72548;BME280;60570;50.848;6.776;2023-07-13T04:11:43;100485.78;;;22.39;43.66
72548;BME280;60570;50.848;6.776;2023-07-13T04:12:44;100494.69;;;22.38;43.79
72548;BME280;60570;50.848;6.776;2023-07-13T04:13:45;100495.50;;;22.38;43.50
72548;BME280;60570;50.848;6.776;2023-07-13T04:14:46;100493.47;;;22.39;43.46
72548;BME280;60570;50.848;6.776;2023-07-13T04:15:48;100489.84;;;22.38;43.73
72548;BME280;60570;50.848;6.776;2023-07-13T04:16:48;100494.69;;;22.38;43.71
72548;BME280;60570;50.848;6.776;2023-07-13T04:17:50;100490.25;;;22.37;43.76
72548;BME280;60570;50.848;6.776;2023-07-13T04:18:50;100490.66;;;22.35;43.75
72548;BME280;60570;50.848;6.776;2023-07-13T04:19:54;100492.69;;;22.35;43.65
72548;BME280;60570;50.848;6.776;2023-07-13T04:20:55;100497.13;;;22.36;43.70
72548;BME280;60570;50.848;6.776;2023-07-13T04:21:55;100493.50;;;22.35;43.76
72548;BME280;60570;50.848;6.776;2023-07-13T04:22:57;100495.50;;;22.35;43.67
72548;BME280;60570;50.848;6.776;2023-07-13T04:23:58;100500.78;;;22.33;43.79
72548;BME280;60570;50.848;6.776;2023-07-13T04:25:00;100503.63;;;22.33;43.79
72548;BME280;60570;50.848;6.776;2023-07-13T04:26:01;100499.19;;;22.32;43.71
72548;BME280;60570;50.848;6.776;2023-07-13T04:27:02;100501.22;;;22.31;43.45
72548;BME280;60570;50.848;6.776;2023-07-13T04:28:04;100501.63;;;22.29;43.76
72548;BME280;60570;50.848;6.776;2023-07-13T04:29:05;100500.81;;;22.29;43.97
72548;BME280;60570;50.848;6.776;2023-07-13T04:30:06;100502.03;;;22.28;43.86
72548;BME280;60570;50.848;6.776;2023-07-13T04:31:07;100491.94;;;22.27;43.73
72548;BME280;60570;50.848;6.776;2023-07-13T04:32:09;100499.22;;;22.28;43.69
72548;BME280;60570;50.848;6.776;2023-07-13T04:33:09;100504.06;;;22.27;43.96
72548;BME280;60570;50.848;6.776;2023-07-13T04:34:10;100501.22;;;22.27;43.80
72548;BME280;60570;50.848;6.776;2023-07-13T04:35:11;100499.63;;;22.26;44.02
72548;BME280;60570;50.848;6.776;2023-07-13T04:36:12;100498.00;;;22.25;44.05
72548;BME280;60570;50.848;6.776;2023-07-13T04:37:13;100508.94;;;22.23;43.89
72548;BME280;60570;50.848;6.776;2023-07-13T04:38:14;100506.94;;;22.24;43.98
72548;BME280;60570;50.848;6.776;2023-07-13T04:39:16;100505.31;;;22.23;44.05
72548;BME280;60570;50.848;6.776;2023-07-13T04:40:18;100505.72;;;22.21;43.85
72548;BME280;60570;50.848;6.776;2023-07-13T04:41:20;100506.53;;;22.22;44.01
72548;BME280;60570;50.848;6.776;2023-07-13T04:42:20;100506.53;;;22.22;44.03
72548;BME280;60570;50.848;6.776;2023-07-13T04:43:22;100503.69;;;22.22;43.90
72548;BME280;60570;50.848;6.776;2023-07-13T04:44:22;100513.41;;;22.21;44.15
72548;BME280;60570;50.848;6.776;2023-07-13T04:45:24;100506.94;;;22.20;44.07
72548;BME280;60570;50.848;6.776;2023-07-13T04:46:24;100509.41;;;22.18;44.09
72548;BME280;60570;50.848;6.776;2023-07-13T04:47:26;100502.09;;;22.17;43.95
72548;BME280;60570;50.848;6.776;2023-07-13T04:48:26;100507.38;;;22.15;44.07
72548;BME280;60570;50.848;6.776;2023-07-13T04:49:28;100500.50;;;22.16;44.06
72548;BME280;60570;50.848;6.776;2023-07-13T04:50:28;100506.16;;;22.16;44.14
72548;BME280;60570;50.848;6.776;2023-07-13T04:51:30;100504.53;;;22.15;44.16
72548;BME280;60570;50.848;6.776;2023-07-13T04:52:30;100508.19;;;22.16;43.98
72548;BME280;60570;50.848;6.776;2023-07-13T04:53:33;100505.78;;;22.14;44.11
72548;BME280;60570;50.848;6.776;2023-07-13T04:54:34;100505.78;;;22.14;44.04
72548;BME280;60570;50.848;6.776;2023-07-13T04:55:38;100505.78;;;22.14;44.02
72548;BME280;60570;50.848;6.776;2023-07-13T04:56:39;100505.78;;;22.14;44.23
72548;BME280;60570;50.848;6.776;2023-07-13T04:57:40;100506.19;;;22.13;44.27
72548;BME280;60570;50.848;6.776;2023-07-13T04:58:41;100507.78;;;22.14;44.05
72548;BME280;60570;50.848;6.776;2023-07-13T04:59:42;100513.88;;;22.12;44.13
72548;BME280;60570;50.848;6.776;2023-07-13T05:00:43;100509.81;;;22.13;44.36
72548;BME280;60570;50.848;6.776;2023-07-13T05:01:44;100514.69;;;22.13;44.05
72548;BME280;60570;50.848;6.776;2023-07-13T05:02:45;100522.38;;;22.12;44.10
72548;BME280;60570;50.848;6.776;2023-07-13T05:03:47;100510.22;;;22.12;44.26
72548;BME280;60570;50.848;6.776;2023-07-13T05:04:48;100518.72;;;22.12;44.33
72548;BME280;60570;50.848;6.776;2023-07-13T05:05:56;100515.88;;;22.12;44.30
72548;BME280;60570;50.848;6.776;2023-07-13T05:06:57;100510.22;;;22.12;44.33
72548;BME280;60570;50.848;6.776;2023-07-13T05:07:58;100517.91;;;22.11;44.28
72548;BME280;60570;50.848;6.776;2023-07-13T05:08:58;100519.13;;;22.10;44.33
72548;BME280;60570;50.848;6.776;2023-07-13T05:10:00;100515.50;;;22.10;44.25
72548;BME280;60570;50.848;6.776;2023-07-13T05:11:03;100514.69;;;22.09;44.35
72548;BME280;60570;50.848;6.776;2023-07-13T05:12:05;100522.38;;;22.09;44.48
72548;BME280;60570;50.848;6.776;2023-07-13T05:13:06;100517.13;;;22.07;44.33
72548;BME280;60570;50.848;6.776;2023-07-13T05:14:07;100516.72;;;22.05;44.52
72548;BME280;60570;50.848;6.776;2023-07-13T05:15:10;100509.06;;;22.06;44.41
72548;BME280;60570;50.848;6.776;2023-07-13T05:16:10;100516.34;;;22.07;44.43
72548;BME280;60570;50.848;6.776;2023-07-13T05:17:12;100522.00;;;22.07;44.48
72548;BME280;60570;50.848;6.776;2023-07-13T05:18:12;100518.34;;;22.06;44.34
72548;BME280;60570;50.848;6.776;2023-07-13T05:19:14;100516.72;;;22.05;44.30
72548;BME280;60570;50.848;6.776;2023-07-13T05:20:15;100515.13;;;22.04;44.64
72548;BME280;60570;50.848;6.776;2023-07-13T05:21:17;100516.34;;;22.03;44.66
72548;BME280;60570;50.848;6.776;2023-07-13T05:22:17;100518.38;;;22.03;44.44
72548;BME280;60570;50.848;6.776;2023-07-13T05:23:18;100526.44;;;22.04;44.49